Terminal Aerodrome Forecast
Issued by NWS Memphis, TN

Home | Current Version | Previous Version | Text Only | Print | Product List | Glossary On
Versions: 1 2 3 4 5 6 7 8 9 10 11 12 13 14 15 16 17 18 19 20 21
223
FTUS44 KMEG 181720
TAFJBR
TAF
KJBR 181720Z 1818/1918 13012KT P6SM BKN250
     FM182000 15010KT P6SM SCT020 BKN250
     FM182200 16009KT P6SM VCSH BKN020 OVC250
     FM190200 17008KT P6SM VCSH OVC007
     FM190700 18010G15KT 4SM -DZ BR OVC010 WS020/21050KT
     FM191200 20014G21KT P6SM BKN020=

USA.gov is the U.S. government's official web portal to all federal, state and local government web resources and services.